sensor_id;sensor_type;location;lat;lon;timestamp;temperature;humidity
3923;DHT22;1976;51.694;6.256;2022-12-08T00:00:42;4.60;99.90
3923;DHT22;1976;51.694;6.256;2022-12-08T00:03:08;4.60;99.90
3923;DHT22;1976;51.694;6.256;2022-12-08T00:05:33;4.60;99.90
3923;DHT22;1976;51.694;6.256;2022-12-08T00:08:17;4.60;99.90
3923;DHT22;1976;51.694;6.256;2022-12-08T00:11:01;4.50;99.90
3923;DHT22;1976;51.694;6.256;2022-12-08T00:13:27;4.50;99.90
3923;DHT22;1976;51.694;6.256;2022-12-08T00:15:59;4.50;99.90
3923;DHT22;1976;51.694;6.256;2022-12-08T00:18:25;4.50;99.90
3923;DHT22;1976;51.694;6.256;2022-12-08T00:20:55;4.50;99.90
3923;DHT22;1976;51.694;6.256;2022-12-08T00:23:21;4.40;99.90
3923;DHT22;1976;51.694;6.256;2022-12-08T00:25:46;4.40;99.90
3923;DHT22;1976;51.694;6.256;2022-12-08T00:28:12;4.40;99.90
3923;DHT22;1976;51.694;6.256;2022-12-08T00:30:41;4.30;99.90
3923;DHT22;1976;51.694;6.256;2022-12-08T00:33:07;4.30;99.90
3923;DHT22;1976;51.694;6.256;2022-12-08T00:35:33;4.30;99.90
3923;DHT22;1976;51.694;6.256;2022-12-08T00:37:58;4.30;99.90
3923;DHT22;1976;51.694;6.256;2022-12-08T00:40:24;4.30;99.90
3923;DHT22;1976;51.694;6.256;2022-12-08T00:42:50;4.30;99.90
3923;DHT22;1976;51.694;6.256;2022-12-08T00:45:15;4.20;99.90
3923;DHT22;1976;51.694;6.256;2022-12-08T00:47:41;4.10;99.90
3923;DHT22;1976;51.694;6.256;2022-12-08T00:50:07;4.10;99.90
3923;DHT22;1976;51.694;6.256;2022-12-08T00:52:32;4.10;99.90
3923;DHT22;1976;51.694;6.256;2022-12-08T00:54:58;4.10;99.90
3923;DHT22;1976;51.694;6.256;2022-12-08T00:57:24;4.10;99.90
3923;DHT22;1976;51.694;6.256;2022-12-08T00:59:49;4.10;99.90
3923;DHT22;1976;51.694;6.256;2022-12-08T01:02:15;4.10;99.90
3923;DHT22;1976;51.694;6.256;2022-12-08T01:04:41;4.10;99.90
3923;DHT22;1976;51.694;6.256;2022-12-08T01:07:07;4.10;99.90
3923;DHT22;1976;51.694;6.256;2022-12-08T01:09:32;4.10;99.90
3923;DHT22;1976;51.694;6.256;2022-12-08T01:11:58;4.10;99.90
3923;DHT22;1976;51.694;6.256;2022-12-08T01:14:24;4.20;99.90
3923;DHT22;1976;51.694;6.256;2022-12-08T01:16:49;4.20;99.90
3923;DHT22;1976;51.694;6.256;2022-12-08T01:19:16;4.20;99.90
3923;DHT22;1976;51.694;6.256;2022-12-08T01:21:42;4.30;99.90
3923;DHT22;1976;51.694;6.256;2022-12-08T01:24:16;4.30;99.90
3923;DHT22;1976;51.694;6.256;2022-12-08T01:26:43;4.30;99.90
3923;DHT22;1976;51.694;6.256;2022-12-08T01:29:09;4.30;99.90
3923;DHT22;1976;51.694;6.256;2022-12-08T01:31:35;4.30;99.90
3923;DHT22;1976;51.694;6.256;2022-12-08T01:34:01;4.40;99.90
3923;DHT22;1976;51.694;6.256;2022-12-08T01:36:28;4.40;99.90
3923;DHT22;1976;51.694;6.256;2022-12-08T01:38:57;4.40;99.90
3923;DHT22;1976;51.694;6.256;2022-12-08T01:41:26;4.40;99.90
3923;DHT22;1976;51.694;6.256;2022-12-08T01:46:21;4.50;99.90
3923;DHT22;1976;51.694;6.256;2022-12-08T01:48:48;4.50;99.90
3923;DHT22;1976;51.694;6.256;2022-12-08T01:51:14;4.60;99.90
3923;DHT22;1976;51.694;6.256;2022-12-08T01:53:40;4.60;99.90
3923;DHT22;1976;51.694;6.256;2022-12-08T01:56:09;4.60;99.90
3923;DHT22;1976;51.694;6.256;2022-12-08T01:58:44;4.60;99.90
3923;DHT22;1976;51.694;6.256;2022-12-08T02:01:12;4.70;99.90
3923;DHT22;1976;51.694;6.256;2022-12-08T02:03:58;4.70;99.90
3923;DHT22;1976;51.694;6.256;2022-12-08T02:06:26;4.50;99.90
3923;DHT22;1976;51.694;6.256;2022-12-08T02:08:52;4.50;99.90
3923;DHT22;1976;51.694;6.256;2022-12-08T02:11:19;4.60;99.90
3923;DHT22;1976;51.694;6.256;2022-12-08T02:13:46;4.60;99.90
3923;DHT22;1976;51.694;6.256;2022-12-08T02:22:00;4.60;99.90
3923;DHT22;1976;51.694;6.256;2022-12-08T02:24:36;4.60;99.90
3923;DHT22;1976;51.694;6.256;2022-12-08T02:27:32;4.50;99.90
3923;DHT22;1976;51.694;6.256;2022-12-08T02:33:08;4.50;99.90
3923;DHT22;1976;51.694;6.256;2022-12-08T02:41:52;4.60;99.90
3923;DHT22;1976;51.694;6.256;2022-12-08T02:44:32;4.60;99.90
3923;DHT22;1976;51.694;6.256;2022-12-08T02:47:06;4.60;99.90
3923;DHT22;1976;51.694;6.256;2022-12-08T02:49:34;4.60;99.90
3923;DHT22;1976;51.694;6.256;2022-12-08T02:54:43;4.80;99.90
3923;DHT22;1976;51.694;6.256;2022-12-08T03:03:07;4.90;99.90
3923;DHT22;1976;51.694;6.256;2022-12-08T03:09:06;4.70;99.90
3923;DHT22;1976;51.694;6.256;2022-12-08T03:11:37;4.70;99.90
3923;DHT22;1976;51.694;6.256;2022-12-08T03:14:05;4.60;99.90
3923;DHT22;1976;51.694;6.256;2022-12-08T03:16:34;4.70;99.90
3923;DHT22;1976;51.694;6.256;2022-12-08T03:21:36;4.60;99.90
3923;DHT22;1976;51.694;6.256;2022-12-08T03:24:06;4.60;99.90
3923;DHT22;1976;51.694;6.256;2022-12-08T03:29:06;4.60;99.90
3923;DHT22;1976;51.694;6.256;2022-12-08T03:31:37;4.60;99.90
3923;DHT22;1976;51.694;6.256;2022-12-08T03:34:04;4.60;99.90
3923;DHT22;1976;51.694;6.256;2022-12-08T03:36:31;4.60;99.90
3923;DHT22;1976;51.694;6.256;2022-12-08T03:38:56;4.60;99.90
3923;DHT22;1976;51.694;6.256;2022-12-08T03:41:22;4.70;99.90
3923;DHT22;1976;51.694;6.256;2022-12-08T03:43:53;4.60;99.90
3923;DHT22;1976;51.694;6.256;2022-12-08T03:46:21;4.70;99.90
3923;DHT22;1976;51.694;6.256;2022-12-08T03:48:47;4.80;99.90
3923;DHT22;1976;51.694;6.256;2022-12-08T03:51:14;4.80;99.90
3923;DHT22;1976;51.694;6.256;2022-12-08T03:53:39;4.80;99.90
3923;DHT22;1976;51.694;6.256;2022-12-08T03:56:21;4.80;99.90
3923;DHT22;1976;51.694;6.256;2022-12-08T03:58:47;4.70;99.90
3923;DHT22;1976;51.694;6.256;2022-12-08T04:01:13;4.80;99.90
3923;DHT22;1976;51.694;6.256;2022-12-08T04:03:38;4.80;99.90
3923;DHT22;1976;51.694;6.256;2022-12-08T04:06:05;4.80;99.90
3923;DHT22;1976;51.694;6.256;2022-12-08T04:08:31;4.80;99.90
3923;DHT22;1976;51.694;6.256;2022-12-08T04:10:56;4.80;99.90
3923;DHT22;1976;51.694;6.256;2022-12-08T04:13:22;4.80;99.90
3923;DHT22;1976;51.694;6.256;2022-12-08T04:15:48;4.80;99.90
3923;DHT22;1976;51.694;6.256;2022-12-08T04:18:14;4.70;99.90
3923;DHT22;1976;51.694;6.256;2022-12-08T04:20:41;4.70;99.90
3923;DHT22;1976;51.694;6.256;2022-12-08T04:23:08;4.70;99.90
3923;DHT22;1976;51.694;6.256;2022-12-08T04:25:34;4.70;99.90
3923;DHT22;1976;51.694;6.256;2022-12-08T04:28:01;4.70;99.90
3923;DHT22;1976;51.694;6.256;2022-12-08T04:30:27;4.70;99.90
3923;DHT22;1976;51.694;6.256;2022-12-08T04:32:53;4.70;99.90
3923;DHT22;1976;51.694;6.256;2022-12-08T04:35:19;4.70;99.90
3923;DHT22;1976;51.694;6.256;2022-12-08T04:37:44;4.70;99.90
3923;DHT22;1976;51.694;6.256;2022-12-08T04:40:11;4.60;99.90
3923;DHT22;1976;51.694;6.256;2022-12-08T04:42:36;4.60;99.90
3923;DHT22;1976;51.694;6.256;2022-12-08T04:45:03;4.60;99.90
3923;DHT22;1976;51.694;6.256;2022-12-08T04:47:28;4.60;99.90
3923;DHT22;1976;51.694;6.256;2022-12-08T04:49:54;4.50;99.90
3923;DHT22;1976;51.694;6.256;2022-12-08T04:52:20;4.50;99.90
3923;DHT22;1976;51.694;6.256;2022-12-08T04:54:46;4.50;99.90
3923;DHT22;1976;51.694;6.256;2022-12-08T04:57:11;4.50;99.90
3923;DHT22;1976;51.694;6.256;2022-12-08T04:59:37;4.40;99.90
3923;DHT22;1976;51.694;6.256;2022-12-08T05:02:03;4.40;99.90
3923;DHT22;1976;51.694;6.256;2022-12-08T05:04:28;4.40;99.90
3923;DHT22;1976;51.694;6.256;2022-12-08T05:06:54;4.50;99.90
3923;DHT22;1976;51.694;6.256;2022-12-08T05:09:20;4.50;99.90
3923;DHT22;1976;51.694;6.256;2022-12-08T05:11:45;4.50;99.90
3923;DHT22;1976;51.694;6.256;2022-12-08T05:14:12;4.50;99.90
3923;DHT22;1976;51.694;6.256;2022-12-08T05:16:39;4.50;99.90
3923;DHT22;1976;51.694;6.256;2022-12-08T05:19:05;4.50;99.90
3923;DHT22;1976;51.694;6.256;2022-12-08T05:21:31;4.40;99.90
3923;DHT22;1976;51.694;6.256;2022-12-08T05:23:57;4.40;99.90
3923;DHT22;1976;51.694;6.256;2022-12-08T05:26:22;4.40;99.90
3923;DHT22;1976;51.694;6.256;2022-12-08T05:28:48;4.40;99.90
3923;DHT22;1976;51.694;6.256;2022-12-08T05:31:15;4.40;99.90
3923;DHT22;1976;51.694;6.256;2022-12-08T05:33:41;4.40;99.90
3923;DHT22;1976;51.694;6.256;2022-12-08T05:36:08;4.40;99.90
3923;DHT22;1976;51.694;6.256;2022-12-08T05:38:34;4.30;99.90
3923;DHT22;1976;51.694;6.256;2022-12-08T05:41:00;4.40;99.90
3923;DHT22;1976;51.694;6.256;2022-12-08T05:43:26;4.30;99.90
3923;DHT22;1976;51.694;6.256;2022-12-08T05:45:51;4.30;99.90
3923;DHT22;1976;51.694;6.256;2022-12-08T05:48:17;4.30;99.90
3923;DHT22;1976;51.694;6.256;2022-12-08T05:50:47;4.30;99.90
3923;DHT22;1976;51.694;6.256;2022-12-08T05:53:13;4.30;99.90
3923;DHT22;1976;51.694;6.256;2022-12-08T05:55:39;4.30;99.90
3923;DHT22;1976;51.694;6.256;2022-12-08T05:58:05;4.20;99.90
3923;DHT22;1976;51.694;6.256;2022-12-08T06:00:31;4.20;99.90
3923;DHT22;1976;51.694;6.256;2022-12-08T06:02:59;4.20;99.90
3923;DHT22;1976;51.694;6.256;2022-12-08T06:05:25;4.20;99.90
3923;DHT22;1976;51.694;6.256;2022-12-08T06:07:51;4.20;99.90
3923;DHT22;1976;51.694;6.256;2022-12-08T06:10:16;4.10;99.90
3923;DHT22;1976;51.694;6.256;2022-12-08T06:12:42;4.10;99.90
3923;DHT22;1976;51.694;6.256;2022-12-08T06:15:08;4.20;99.90
3923;DHT22;1976;51.694;6.256;2022-12-08T06:17:34;4.20;99.90
3923;DHT22;1976;51.694;6.256;2022-12-08T06:19:59;4.20;99.90
3923;DHT22;1976;51.694;6.256;2022-12-08T06:22:25;4.10;99.90
3923;DHT22;1976;51.694;6.256;2022-12-08T06:24:51;4.20;99.90
3923;DHT22;1976;51.694;6.256;2022-12-08T06:27:16;4.10;99.90
3923;DHT22;1976;51.694;6.256;2022-12-08T06:29:42;4.20;99.90
3923;DHT22;1976;51.694;6.256;2022-12-08T06:32:08;4.20;99.90
3923;DHT22;1976;51.694;6.256;2022-12-08T06:34:33;4.20;99.90
3923;DHT22;1976;51.694;6.256;2022-12-08T06:36:59;4.20;99.90
3923;DHT22;1976;51.694;6.256;2022-12-08T06:39:24;4.20;99.90
3923;DHT22;1976;51.694;6.256;2022-12-08T06:44:35;4.20;99.90
3923;DHT22;1976;51.694;6.256;2022-12-08T06:47:00;4.20;99.90
3923;DHT22;1976;51.694;6.256;2022-12-08T06:49:26;4.20;99.90
3923;DHT22;1976;51.694;6.256;2022-12-08T06:51:51;4.20;99.90
3923;DHT22;1976;51.694;6.256;2022-12-08T06:54:17;4.20;99.90
3923;DHT22;1976;51.694;6.256;2022-12-08T06:56:43;4.20;99.90
3923;DHT22;1976;51.694;6.256;2022-12-08T06:59:08;4.20;99.90
3923;DHT22;1976;51.694;6.256;2022-12-08T07:01:34;4.20;99.90
3923;DHT22;1976;51.694;6.256;2022-12-08T07:04:00;4.20;99.90
3923;DHT22;1976;51.694;6.256;2022-12-08T07:06:25;4.20;99.90
3923;DHT22;1976;51.694;6.256;2022-12-08T07:08:51;4.20;99.90
3923;DHT22;1976;51.694;6.256;2022-12-08T07:11:17;4.10;99.90
3923;DHT22;1976;51.694;6.256;2022-12-08T07:13:43;4.10;99.90
3923;DHT22;1976;51.694;6.256;2022-12-08T07:16:10;4.10;99.90
3923;DHT22;1976;51.694;6.256;2022-12-08T07:18:37;4.10;99.90
3923;DHT22;1976;51.694;6.256;2022-12-08T07:21:10;4.10;99.90
3923;DHT22;1976;51.694;6.256;2022-12-08T07:23:37;4.10;99.90
3923;DHT22;1976;51.694;6.256;2022-12-08T07:26:05;4.10;99.90
3923;DHT22;1976;51.694;6.256;2022-12-08T07:28:33;4.10;99.90
3923;DHT22;1976;51.694;6.256;2022-12-08T07:31:00;4.10;99.90
3923;DHT22;1976;51.694;6.256;2022-12-08T07:33:26;4.10;99.90
3923;DHT22;1976;51.694;6.256;2022-12-08T07:36:03;4.10;99.90
3923;DHT22;1976;51.694;6.256;2022-12-08T07:38:30;4.00;99.90
3923;DHT22;1976;51.694;6.256;2022-12-08T07:40:56;4.00;99.90
3923;DHT22;1976;51.694;6.256;2022-12-08T07:43:22;4.00;99.90
3923;DHT22;1976;51.694;6.256;2022-12-08T07:48:14;4.10;99.90
3923;DHT22;1976;51.694;6.256;2022-12-08T07:53:06;4.10;99.90
3923;DHT22;1976;51.694;6.256;2022-12-08T07:55:32;4.20;99.90
3923;DHT22;1976;51.694;6.256;2022-12-08T07:57:57;4.20;99.90
3923;DHT22;1976;51.694;6.256;2022-12-08T08:00:23;4.20;99.90
3923;DHT22;1976;51.694;6.256;2022-12-08T08:02:49;4.10;99.90
3923;DHT22;1976;51.694;6.256;2022-12-08T08:07:41;4.20;99.90
3923;DHT22;1976;51.694;6.256;2022-12-08T08:10:09;4.20;99.90
3923;DHT22;1976;51.694;6.256;2022-12-08T08:12:35;4.10;99.90
3923;DHT22;1976;51.694;6.256;2022-12-08T08:15:03;4.10;99.90
3923;DHT22;1976;51.694;6.256;2022-12-08T08:17:29;4.10;99.90
3923;DHT22;1976;51.694;6.256;2022-12-08T08:19:55;4.10;99.90
3923;DHT22;1976;51.694;6.256;2022-12-08T08:22:20;4.10;99.90
3923;DHT22;1976;51.694;6.256;2022-12-08T08:24:46;4.20;99.90
3923;DHT22;1976;51.694;6.256;2022-12-08T08:27:11;4.20;99.90
3923;DHT22;1976;51.694;6.256;2022-12-08T08:29:38;4.20;99.90
3923;DHT22;1976;51.694;6.256;2022-12-08T08:32:03;4.20;99.90
3923;DHT22;1976;51.694;6.256;2022-12-08T08:34:29;4.20;99.90
3923;DHT22;1976;51.694;6.256;2022-12-08T08:36:55;4.10;99.90
3923;DHT22;1976;51.694;6.256;2022-12-08T08:39:21;4.10;99.90
3923;DHT22;1976;51.694;6.256;2022-12-08T08:41:46;4.10;99.90
3923;DHT22;1976;51.694;6.256;2022-12-08T08:44:13;4.20;99.90
3923;DHT22;1976;51.694;6.256;2022-12-08T08:46:40;4.20;99.90
3923;DHT22;1976;51.694;6.256;2022-12-08T08:49:05;4.20;99.90
3923;DHT22;1976;51.694;6.256;2022-12-08T08:51:31;4.30;99.90
3923;DHT22;1976;51.694;6.256;2022-12-08T08:53:57;4.40;99.90
3923;DHT22;1976;51.694;6.256;2022-12-08T08:56:23;4.40;99.90
3923;DHT22;1976;51.694;6.256;2022-12-08T08:58:50;4.40;99.90
3923;DHT22;1976;51.694;6.256;2022-12-08T09:01:25;4.50;99.90
3923;DHT22;1976;51.694;6.256;2022-12-08T09:06:18;4.50;99.90
3923;DHT22;1976;51.694;6.256;2022-12-08T09:08:44;4.60;99.90
3923;DHT22;1976;51.694;6.256;2022-12-08T09:11:11;4.60;99.90
3923;DHT22;1976;51.694;6.256;2022-12-08T09:16:05;4.60;99.90
3923;DHT22;1976;51.694;6.256;2022-12-08T09:18:31;4.60;99.90
3923;DHT22;1976;51.694;6.256;2022-12-08T09:21:06;4.50;99.90
3923;DHT22;1976;51.694;6.256;2022-12-08T09:23:33;4.60;99.90
3923;DHT22;1976;51.694;6.256;2022-12-08T09:25:59;4.60;99.90
3923;DHT22;1976;51.694;6.256;2022-12-08T09:28:24;4.60;99.90
3923;DHT22;1976;51.694;6.256;2022-12-08T09:30:51;4.60;99.90
3923;DHT22;1976;51.694;6.256;2022-12-08T09:33:16;4.70;99.90
3923;DHT22;1976;51.694;6.256;2022-12-08T09:35:42;4.70;99.90
3923;DHT22;1976;51.694;6.256;2022-12-08T09:38:08;4.70;99.90
3923;DHT22;1976;51.694;6.256;2022-12-08T09:40:49;4.70;99.90
3923;DHT22;1976;51.694;6.256;2022-12-08T09:43:43;4.70;99.90
3923;DHT22;1976;51.694;6.256;2022-12-08T09:46:13;4.80;99.90
3923;DHT22;1976;51.694;6.256;2022-12-08T09:48:43;4.80;99.90
3923;DHT22;1976;51.694;6.256;2022-12-08T09:51:10;4.80;99.90
3923;DHT22;1976;51.694;6.256;2022-12-08T09:53:43;4.80;99.90
3923;DHT22;1976;51.694;6.256;2022-12-08T09:56:24;4.80;99.90
3923;DHT22;1976;51.694;6.256;2022-12-08T10:01:22;4.70;99.90
3923;DHT22;1976;51.694;6.256;2022-12-08T10:03:48;4.70;99.90
3923;DHT22;1976;51.694;6.256;2022-12-08T10:06:30;4.80;99.90
3923;DHT22;1976;51.694;6.256;2022-12-08T10:09:27;4.80;99.90
3923;DHT22;1976;51.694;6.256;2022-12-08T10:12:07;4.80;99.90
3923;DHT22;1976;51.694;6.256;2022-12-08T10:17:30;4.70;99.90
3923;DHT22;1976;51.694;6.256;2022-12-08T10:20:02;4.70;99.90
3923;DHT22;1976;51.694;6.256;2022-12-08T10:22:32;4.70;99.90
3923;DHT22;1976;51.694;6.256;2022-12-08T10:25:14;4.60;99.90
3923;DHT22;1976;51.694;6.256;2022-12-08T10:27:41;4.60;99.90
3923;DHT22;1976;51.694;6.256;2022-12-08T10:30:14;4.70;99.90
3923;DHT22;1976;51.694;6.256;2022-12-08T10:32:44;4.70;99.90
3923;DHT22;1976;51.694;6.256;2022-12-08T10:35:12;4.70;99.90
3923;DHT22;1976;51.694;6.256;2022-12-08T10:37:38;4.70;99.90
3923;DHT22;1976;51.694;6.256;2022-12-08T10:42:39;4.80;99.90
3923;DHT22;1976;51.694;6.256;2022-12-08T10:47:41;4.90;99.90
3923;DHT22;1976;51.694;6.256;2022-12-08T10:52:55;4.90;99.90
3923;DHT22;1976;51.694;6.256;2022-12-08T10:55:21;4.90;99.90
3923;DHT22;1976;51.694;6.256;2022-12-08T10:57:47;4.90;99.90
3923;DHT22;1976;51.694;6.256;2022-12-08T11:00:26;4.90;99.90
3923;DHT22;1976;51.694;6.256;2022-12-08T11:02:57;4.90;99.90
3923;DHT22;1976;51.694;6.256;2022-12-08T11:05:27;4.90;99.90
3923;DHT22;1976;51.694;6.256;2022-12-08T11:07:54;4.80;99.90
3923;DHT22;1976;51.694;6.256;2022-12-08T11:10:31;4.80;99.90
3923;DHT22;1976;51.694;6.256;2022-12-08T11:13:00;4.80;99.90
3923;DHT22;1976;51.694;6.256;2022-12-08T11:15:33;4.80;99.90
3923;DHT22;1976;51.694;6.256;2022-12-08T11:18:05;4.80;99.90
3923;DHT22;1976;51.694;6.256;2022-12-08T11:20:39;4.80;99.90
3923;DHT22;1976;51.694;6.256;2022-12-08T11:23:19;4.90;99.90
3923;DHT22;1976;51.694;6.256;2022-12-08T11:25:46;4.90;99.90
3923;DHT22;1976;51.694;6.256;2022-12-08T11:28:12;4.90;99.90
3923;DHT22;1976;51.694;6.256;2022-12-08T11:30:42;4.90;99.90
3923;DHT22;1976;51.694;6.256;2022-12-08T11:33:21;4.80;99.90
3923;DHT22;1976;51.694;6.256;2022-12-08T11:36:04;4.90;99.90
3923;DHT22;1976;51.694;6.256;2022-12-08T11:38:32;4.80;99.90
3923;DHT22;1976;51.694;6.256;2022-12-08T11:41:04;4.90;99.90
3923;DHT22;1976;51.694;6.256;2022-12-08T11:46:27;4.90;99.90
3923;DHT22;1976;51.694;6.256;2022-12-08T11:49:02;4.90;99.90
3923;DHT22;1976;51.694;6.256;2022-12-08T11:54:21;4.90;99.90
3923;DHT22;1976;51.694;6.256;2022-12-08T11:57:00;5.00;99.90
3923;DHT22;1976;51.694;6.256;2022-12-08T11:59:39;5.10;99.90
3923;DHT22;1976;51.694;6.256;2022-12-08T12:02:27;5.10;99.90
3923;DHT22;1976;51.694;6.256;2022-12-08T12:05:03;5.20;99.90
3923;DHT22;1976;51.694;6.256;2022-12-08T12:15:09;5.20;99.90
3923;DHT22;1976;51.694;6.256;2022-12-08T12:17:04;5.20;99.90
3923;DHT22;1976;51.694;6.256;2022-12-08T12:19:35;5.30;99.90
3923;DHT22;1976;51.694;6.256;2022-12-08T12:22:16;5.30;99.90
3923;DHT22;1976;51.694;6.256;2022-12-08T12:24:46;5.20;99.90
3923;DHT22;1976;51.694;6.256;2022-12-08T12:29:38;5.20;99.90
3923;DHT22;1976;51.694;6.256;2022-12-08T12:37:35;5.30;99.90
3923;DHT22;1976;51.694;6.256;2022-12-08T12:40:14;5.40;99.90
3923;DHT22;1976;51.694;6.256;2022-12-08T12:58:33;5.60;99.90
3923;DHT22;1976;51.694;6.256;2022-12-08T13:03:35;5.40;99.90
3923;DHT22;1976;51.694;6.256;2022-12-08T13:06:02;5.50;99.90
3923;DHT22;1976;51.694;6.256;2022-12-08T13:08:28;5.60;99.90
3923;DHT22;1976;51.694;6.256;2022-12-08T13:13:26;5.40;99.90
3923;DHT22;1976;51.694;6.256;2022-12-08T13:15:55;5.40;99.90
3923;DHT22;1976;51.694;6.256;2022-12-08T13:21:12;5.30;99.90
3923;DHT22;1976;51.694;6.256;2022-12-08T13:31:37;5.50;99.90
3923;DHT22;1976;51.694;6.256;2022-12-08T13:34:06;5.60;99.90
3923;DHT22;1976;51.694;6.256;2022-12-08T13:36:39;5.60;99.90
3923;DHT22;1976;51.694;6.256;2022-12-08T13:39:25;5.50;99.90
3923;DHT22;1976;51.694;6.256;2022-12-08T13:45:17;5.50;99.90
3923;DHT22;1976;51.694;6.256;2022-12-08T13:48:01;5.40;99.90
3923;DHT22;1976;51.694;6.256;2022-12-08T13:53:34;5.40;99.90
3923;DHT22;1976;51.694;6.256;2022-12-08T13:56:03;5.50;99.90
3923;DHT22;1976;51.694;6.256;2022-12-08T13:58:34;5.50;99.90
3923;DHT22;1976;51.694;6.256;2022-12-08T14:01:16;5.50;99.90
3923;DHT22;1976;51.694;6.256;2022-12-08T14:03:57;5.50;99.90
3923;DHT22;1976;51.694;6.256;2022-12-08T14:06:34;5.30;99.90
3923;DHT22;1976;51.694;6.256;2022-12-08T14:09:02;5.20;99.90
3923;DHT22;1976;51.694;6.256;2022-12-08T14:11:33;5.10;99.90
3923;DHT22;1976;51.694;6.256;2022-12-08T14:16:40;5.20;99.90
3923;DHT22;1976;51.694;6.256;2022-12-08T14:19:27;5.20;99.90
3923;DHT22;1976;51.694;6.256;2022-12-08T14:21:57;5.20;99.90
3923;DHT22;1976;51.694;6.256;2022-12-08T14:24:24;5.10;99.90
3923;DHT22;1976;51.694;6.256;2022-12-08T14:26:53;5.10;99.90
3923;DHT22;1976;51.694;6.256;2022-12-08T14:29:37;5.20;99.90
3923;DHT22;1976;51.694;6.256;2022-12-08T14:32:51;5.20;99.90
3923;DHT22;1976;51.694;6.256;2022-12-08T14:34:54;5.10;99.90
3923;DHT22;1976;51.694;6.256;2022-12-08T14:37:21;5.10;99.90
3923;DHT22;1976;51.694;6.256;2022-12-08T14:39:48;4.90;99.90
3923;DHT22;1976;51.694;6.256;2022-12-08T14:42:22;4.90;99.90
3923;DHT22;1976;51.694;6.256;2022-12-08T14:45:03;4.80;99.90
3923;DHT22;1976;51.694;6.256;2022-12-08T14:47:32;4.80;99.90
3923;DHT22;1976;51.694;6.256;2022-12-08T14:50:00;4.90;99.90
3923;DHT22;1976;51.694;6.256;2022-12-08T14:52:26;4.80;99.90
3923;DHT22;1976;51.694;6.256;2022-12-08T14:54:53;4.80;99.90
3923;DHT22;1976;51.694;6.256;2022-12-08T14:57:19;4.70;99.90
3923;DHT22;1976;51.694;6.256;2022-12-08T14:59:45;4.70;99.90
3923;DHT22;1976;51.694;6.256;2022-12-08T15:04:43;4.70;99.90
3923;DHT22;1976;51.694;6.256;2022-12-08T15:07:16;4.70;99.90
3923;DHT22;1976;51.694;6.256;2022-12-08T15:09:44;4.70;99.90
3923;DHT22;1976;51.694;6.256;2022-12-08T15:15:28;4.70;99.90
3923;DHT22;1976;51.694;6.256;2022-12-08T15:17:40;4.70;99.90
3923;DHT22;1976;51.694;6.256;2022-12-08T15:22:53;4.70;99.90
3923;DHT22;1976;51.694;6.256;2022-12-08T15:25:19;4.70;99.90
3923;DHT22;1976;51.694;6.256;2022-12-08T15:27:45;4.70;99.90
3923;DHT22;1976;51.694;6.256;2022-12-08T15:30:15;4.70;99.90
3923;DHT22;1976;51.694;6.256;2022-12-08T15:32:41;4.70;99.90
3923;DHT22;1976;51.694;6.256;2022-12-08T15:35:12;4.70;99.90
3923;DHT22;1976;51.694;6.256;2022-12-08T15:37:38;4.70;99.90
3923;DHT22;1976;51.694;6.256;2022-12-08T15:40:04;4.80;99.90
3923;DHT22;1976;51.694;6.256;2022-12-08T15:42:30;4.80;99.90
3923;DHT22;1976;51.694;6.256;2022-12-08T15:44:56;4.70;99.90
3923;DHT22;1976;51.694;6.256;2022-12-08T15:47:23;4.70;99.90
3923;DHT22;1976;51.694;6.256;2022-12-08T15:49:50;4.70;99.90
3923;DHT22;1976;51.694;6.256;2022-12-08T15:52:19;4.70;99.90
3923;DHT22;1976;51.694;6.256;2022-12-08T15:54:45;4.70;99.90
3923;DHT22;1976;51.694;6.256;2022-12-08T15:57:31;4.70;99.90
3923;DHT22;1976;51.694;6.256;2022-12-08T15:59:56;4.70;99.90
3923;DHT22;1976;51.694;6.256;2022-12-08T16:02:23;4.80;99.90
3923;DHT22;1976;51.694;6.256;2022-12-08T16:04:49;4.80;99.90
3923;DHT22;1976;51.694;6.256;2022-12-08T16:07:29;4.70;99.90
3923;DHT22;1976;51.694;6.256;2022-12-08T16:09:55;4.70;99.90
3923;DHT22;1976;51.694;6.256;2022-12-08T16:12:23;4.70;99.90
3923;DHT22;1976;51.694;6.256;2022-12-08T16:15:09;4.60;99.90
3923;DHT22;1976;51.694;6.256;2022-12-08T16:17:35;4.60;99.90
3923;DHT22;1976;51.694;6.256;2022-12-08T16:20:02;4.40;99.90
3923;DHT22;1976;51.694;6.256;2022-12-08T16:22:29;4.40;99.90
3923;DHT22;1976;51.694;6.256;2022-12-08T16:24:56;4.40;99.90
3923;DHT22;1976;51.694;6.256;2022-12-08T16:27:30;4.40;99.90
3923;DHT22;1976;51.694;6.256;2022-12-08T16:29:58;4.50;99.90
3923;DHT22;1976;51.694;6.256;2022-12-08T16:32:25;4.70;99.90
3923;DHT22;1976;51.694;6.256;2022-12-08T16:34:51;4.70;99.90
3923;DHT22;1976;51.694;6.256;2022-12-08T16:37:22;4.70;99.90
3923;DHT22;1976;51.694;6.256;2022-12-08T16:39:49;4.80;99.90
3923;DHT22;1976;51.694;6.256;2022-12-08T16:42:17;4.80;99.90
3923;DHT22;1976;51.694;6.256;2022-12-08T16:45:04;4.90;99.90
3923;DHT22;1976;51.694;6.256;2022-12-08T16:47:30;4.90;99.90
3923;DHT22;1976;51.694;6.256;2022-12-08T16:49:56;5.00;99.90
3923;DHT22;1976;51.694;6.256;2022-12-08T16:52:22;5.10;99.90
3923;DHT22;1976;51.694;6.256;2022-12-08T16:54:48;5.10;99.90
3923;DHT22;1976;51.694;6.256;2022-12-08T16:57:14;5.20;99.90
3923;DHT22;1976;51.694;6.256;2022-12-08T16:59:40;5.20;99.90
3923;DHT22;1976;51.694;6.256;2022-12-08T17:02:05;5.20;99.90
3923;DHT22;1976;51.694;6.256;2022-12-08T17:04:32;5.30;99.90
3923;DHT22;1976;51.694;6.256;2022-12-08T17:06:58;5.30;99.90
3923;DHT22;1976;51.694;6.256;2022-12-08T17:09:25;5.40;99.90
3923;DHT22;1976;51.694;6.256;2022-12-08T17:11:50;5.40;99.90
3923;DHT22;1976;51.694;6.256;2022-12-08T17:14:16;5.40;99.90
3923;DHT22;1976;51.694;6.256;2022-12-08T17:16:43;5.40;99.90
3923;DHT22;1976;51.694;6.256;2022-12-08T17:19:08;5.40;99.90
3923;DHT22;1976;51.694;6.256;2022-12-08T17:21:34;5.40;99.90
3923;DHT22;1976;51.694;6.256;2022-12-08T17:24:00;5.40;99.90
3923;DHT22;1976;51.694;6.256;2022-12-08T17:26:25;5.50;99.90
3923;DHT22;1976;51.694;6.256;2022-12-08T17:28:51;5.50;99.90
3923;DHT22;1976;51.694;6.256;2022-12-08T17:31:17;5.50;99.90
3923;DHT22;1976;51.694;6.256;2022-12-08T17:33:43;5.60;99.90
3923;DHT22;1976;51.694;6.256;2022-12-08T17:36:11;5.60;99.90
3923;DHT22;1976;51.694;6.256;2022-12-08T17:38:38;5.60;99.90
3923;DHT22;1976;51.694;6.256;2022-12-08T17:41:05;5.50;99.90
3923;DHT22;1976;51.694;6.256;2022-12-08T17:43:31;5.50;99.90
3923;DHT22;1976;51.694;6.256;2022-12-08T17:45:57;5.30;99.90
3923;DHT22;1976;51.694;6.256;2022-12-08T17:48:23;5.20;99.90
3923;DHT22;1976;51.694;6.256;2022-12-08T17:54:11;4.70;99.90
3923;DHT22;1976;51.694;6.256;2022-12-08T17:56:37;4.70;99.90
3923;DHT22;1976;51.694;6.256;2022-12-08T17:59:03;4.60;99.90
3923;DHT22;1976;51.694;6.256;2022-12-08T18:01:28;4.60;99.90
3923;DHT22;1976;51.694;6.256;2022-12-08T18:03:59;4.60;99.90
3923;DHT22;1976;51.694;6.256;2022-12-08T18:06:27;4.50;99.90
3923;DHT22;1976;51.694;6.256;2022-12-08T18:08:54;4.30;99.90
3923;DHT22;1976;51.694;6.256;2022-12-08T18:11:19;4.10;99.90
3923;DHT22;1976;51.694;6.256;2022-12-08T18:13:49;4.10;99.90
3923;DHT22;1976;51.694;6.256;2022-12-08T18:16:16;4.10;99.90
3923;DHT22;1976;51.694;6.256;2022-12-08T18:18:42;4.00;99.90
3923;DHT22;1976;51.694;6.256;2022-12-08T18:21:08;4.00;99.90
3923;DHT22;1976;51.694;6.256;2022-12-08T18:23:36;4.00;99.90
3923;DHT22;1976;51.694;6.256;2022-12-08T18:26:03;4.10;99.90
3923;DHT22;1976;51.694;6.256;2022-12-08T18:28:29;4.10;99.90
3923;DHT22;1976;51.694;6.256;2022-12-08T18:30:55;4.10;99.90
3923;DHT22;1976;51.694;6.256;2022-12-08T18:33:20;4.10;99.90
3923;DHT22;1976;51.694;6.256;2022-12-08T18:35:46;4.20;99.90
3923;DHT22;1976;51.694;6.256;2022-12-08T18:38:12;4.20;99.90
3923;DHT22;1976;51.694;6.256;2022-12-08T18:40:37;4.20;99.90